Time;durP1;ratioP1;P1;durP2;ratioP2;P2;SDS_P1;SDS_P2;PMS_P1;PMS_P2;Temp;Humidity;BMP_temperature;BMP_pressure;BME280_temperature;BME280_humidity;BME280_pressure;Samples;Min_cycle;Max_cycle;Signal;HPM_P1;HPM_P2
2022/10/20 00:01:24;;;;;;;15.80;8.05;;;;;;;10.60;100.00;101500.25;5026516;28;20045;-91
2022/10/20 00:03:50;;;;;;;17.27;7.95;;;;;;;10.61;100.00;101494.13;5002183;28;20068;-89
2022/10/20 00:06:20;;;;;;;20.08;8.48;;;;;;;10.70;100.00;101491.50;5007111;28;20030;-90
2022/10/20 00:08:46;;;;;;;15.35;8.70;;;;;;;10.73;100.00;101484.41;5025834;28;20030;-88
2022/10/20 00:11:13;;;;;;;16.48;9.05;;;;;;;10.70;100.00;101485.50;5022219;28;20049;-90
2022/10/20 00:13:40;;;;;;;19.42;7.65;;;;;;;10.73;100.00;101482.63;5009463;28;20405;-90
2022/10/20 00:16:06;;;;;;;16.30;8.80;;;;;;;10.77;100.00;101465.81;4994623;28;20022;-89
2022/10/20 00:18:35;;;;;;;16.13;9.38;;;;;;;10.71;100.00;101461.19;5008128;28;20100;-91
2022/10/20 00:21:06;;;;;;;15.45;8.35;;;;;;;10.72;100.00;101465.44;4988585;28;20029;-90
2022/10/20 00:23:32;;;;;;;16.27;8.68;;;;;;;10.73;100.00;101461.88;5011232;28;20095;-91
2022/10/20 00:26:06;;;;;;;20.08;9.35;;;;;;;10.77;100.00;101463.22;5007711;28;20029;-90
2022/10/20 00:28:32;;;;;;;28.40;9.60;;;;;;;10.84;100.00;101460.91;5017072;28;20049;-89
2022/10/20 00:30:58;;;;;;;20.25;9.57;;;;;;;10.81;100.00;101454.22;4997429;28;20037;-92
2022/10/20 00:33:24;;;;;;;19.88;9.15;;;;;;;10.81;100.00;101461.16;5020887;28;20060;-91
2022/10/20 00:35:50;;;;;;;21.42;10.15;;;;;;;10.81;100.00;101450.78;5013237;28;20038;-89
2022/10/20 00:38:15;;;;;;;21.15;10.65;;;;;;;10.82;100.00;101463.63;5014842;28;20391;-90
2022/10/20 00:40:44;;;;;;;17.63;9.82;;;;;;;10.81;100.00;101455.97;5028603;28;20144;-91
2022/10/20 00:43:15;;;;;;;19.60;10.07;;;;;;;10.88;100.00;101441.47;5018671;28;20506;-90
2022/10/20 00:45:43;;;;;;;19.02;9.07;;;;;;;10.93;100.00;101439.28;5013492;28;20041;-90
2022/10/20 00:48:16;;;;;;;22.15;9.68;;;;;;;10.96;100.00;101444.16;5013085;28;20029;-90
2022/10/20 00:50:47;;;;;;;24.63;10.43;;;;;;;10.92;100.00;101442.81;4999173;28;20034;-91
2022/10/20 00:53:13;;;;;;;23.95;8.52;;;;;;;10.99;100.00;101436.13;5019298;28;20026;-91
2022/10/20 00:55:42;;;;;;;18.80;9.55;;;;;;;10.97;100.00;101440.63;5029702;28;20095;-90
2022/10/20 00:58:08;;;;;;;15.98;9.32;;;;;;;10.99;100.00;101423.13;5013202;28;20140;-90
2022/10/20 01:00:37;;;;;;;18.30;9.05;;;;;;;11.00;100.00;101423.94;5022980;28;20041;-88
2022/10/20 01:03:06;;;;;;;17.92;9.25;;;;;;;11.02;100.00;101422.88;5003983;28;20220;-91
2022/10/20 01:05:32;;;;;;;17.23;8.38;;;;;;;10.99;100.00;101420.53;5014424;28;20033;-92
2022/10/20 01:07:58;;;;;;;22.05;10.80;;;;;;;10.83;100.00;101408.19;5007901;28;20398;-91
2022/10/20 01:10:27;;;;;;;18.27;8.80;;;;;;;10.89;100.00;101410.22;5023425;28;20030;-90
2022/10/20 01:13:01;;;;;;;24.48;9.52;;;;;;;10.86;100.00;101412.28;5019063;28;20034;-92
2022/10/20 01:15:45;;;;;;;20.98;9.57;;;;;;;10.87;100.00;101404.34;5008820;28;20438;-91
2022/10/20 01:18:21;;;;;;;20.42;9.80;;;;;;;10.80;100.00;101399.88;4993848;28;20435;-92
2022/10/20 01:21:08;;;;;;;21.17;9.07;;;;;;;10.84;100.00;101404.63;4992125;28;20042;-90
2022/10/20 01:23:52;;;;;;;23.77;9.02;;;;;;;10.84;100.00;101404.63;5013193;28;20104;-90
2022/10/20 01:26:49;;;;;;;15.48;8.40;;;;;;;10.87;100.00;101398.34;5012972;28;20116;-90
2022/10/20 01:29:21;;;;;;;19.90;8.30;;;;;;;10.94;100.00;101388.19;5023232;28;20494;-90
2022/10/20 01:31:50;;;;;;;14.83;8.50;;;;;;;10.87;100.00;101381.00;5012212;28;20036;-89
2022/10/20 01:34:31;;;;;;;16.52;8.43;;;;;;;10.84;100.00;101375.28;5012358;28;20033;-89
2022/10/20 01:37:24;;;;;;;12.45;7.82;;;;;;;10.78;100.00;101378.47;4996557;28;20439;-90
2022/10/20 01:40:14;;;;;;;17.75;7.80;;;;;;;10.78;100.00;101383.63;4995795;28;20125;-91
2022/10/20 01:42:43;;;;;;;17.75;7.88;;;;;;;10.72;100.00;101377.25;5031394;28;20066;-91
2022/10/20 01:45:12;;;;;;;13.85;8.00;;;;;;;10.70;100.00;101361.81;4992864;28;20030;-90
2022/10/20 01:47:38;;;;;;;13.70;7.68;;;;;;;10.69;100.00;101359.38;5027848;28;20045;-90
2022/10/20 01:50:06;;;;;;;16.55;8.05;;;;;;;10.72;100.00;101348.72;4997914;28;20045;-90
2022/10/20 01:52:31;;;;;;;19.50;7.40;;;;;;;10.66;100.00;101351.84;5011517;28;20755;-90
2022/10/20 01:54:57;;;;;;;14.02;7.47;;;;;;;10.61;100.00;101335.94;5013224;28;20103;-90
2022/10/20 01:57:28;;;;;;;16.05;7.07;;;;;;;10.63;100.00;101332.22;5019498;28;20037;-91
2022/10/20 02:00:11;;;;;;;17.52;8.35;;;;;;;10.63;100.00;101328.81;5005845;28;20037;-92
2022/10/20 02:03:05;;;;;;;16.80;8.05;;;;;;;10.66;100.00;101324.16;5022345;28;20445;-91
2022/10/20 02:05:30;;;;;;;;;;;;;;;10.67;100.00;101330.97;5034332;28;20052;-90
2022/10/20 02:08:24;;;;;;;15.17;7.40;;;;;;;10.64;99.98;101322.66;5014070;28;20520;-91
2022/10/20 02:10:54;;;;;;;22.48;8.65;;;;;;;10.52;100.00;101322.03;5000589;28;20476;-90
2022/10/20 02:13:20;;;;;;;16.08;7.97;;;;;;;10.57;100.00;101324.19;5016396;28;20030;-91
2022/10/20 02:15:59;;;;;;;17.05;8.52;;;;;;;10.62;100.00;101316.81;5028262;28;20037;-91
2022/10/20 02:18:32;;;;;;;25.55;8.75;;;;;;;10.58;100.00;101311.09;5002885;28;20639;-90
2022/10/20 02:21:00;;;;;;;21.17;7.85;;;;;;;10.54;100.00;101314.94;5012049;28;20029;-91
2022/10/20 02:23:32;;;;;;;14.52;7.65;;;;;;;10.61;100.00;101315.19;5027990;28;20498;-91
2022/10/20 02:26:08;;;;;;;22.83;8.57;;;;;;;10.64;100.00;101320.06;5010380;28;20038;-90
2022/10/20 02:28:38;;;;;;;17.38;8.45;;;;;;;10.61;100.00;101304.81;5027583;28;20037;-89
2022/10/20 02:31:04;;;;;;;18.52;8.55;;;;;;;10.59;100.00;101301.56;5005263;28;20112;-92
2022/10/20 02:33:30;;;;;;;17.35;8.40;;;;;;;10.53;100.00;101295.16;5007290;28;20122;-90
2022/10/20 02:35:58;;;;;;;18.33;9.05;;;;;;;10.59;100.00;101286.81;5011079;28;20034;-91
2022/10/20 02:38:24;;;;;;;16.38;7.68;;;;;;;10.59;100.00;101289.38;5015620;28;20038;-89
2022/10/20 02:40:49;;;;;;;15.73;8.52;;;;;;;10.61;100.00;101281.47;5011889;28;20114;-91
2022/10/20 02:43:15;;;;;;;20.77;7.97;;;;;;;10.64;100.00;101281.16;5004135;28;20046;-91
2022/10/20 02:45:40;;;;;;;16.92;7.70;;;;;;;10.63;100.00;101280.34;5037221;28;20033;-90
2022/10/20 02:48:08;;;;;;;19.65;7.68;;;;;;;10.62;99.98;101275.31;5015803;28;20034;-91
2022/10/20 02:50:34;;;;;;;14.73;7.75;;;;;;;10.60;99.76;101277.22;5008108;28;20038;-91
2022/10/20 02:53:00;;;;;;;13.32;7.13;;;;;;;10.52;100.00;101267.59;5022767;28;20033;-89
2022/10/20 02:55:27;;;;;;;12.57;7.35;;;;;;;10.54;99.72;101270.84;5015454;28;20112;-90
2022/10/20 02:57:52;;;;;;;16.85;8.02;;;;;;;10.52;99.92;101280.53;5038205;28;20091;-91
2022/10/20 03:00:19;;;;;;;19.05;8.07;;;;;;;10.58;99.56;101273.97;5012730;28;20033;-91
2022/10/20 03:02:44;;;;;;;14.57;7.70;;;;;;;10.57;99.54;101277.50;4994490;28;20038;-90
2022/10/20 03:05:10;;;;;;;15.15;7.63;;;;;;;10.58;99.49;101273.97;5009497;28;20029;-89
2022/10/20 03:07:35;;;;;;;13.30;7.97;;;;;;;10.59;99.55;101275.63;5012380;28;20137;-91
2022/10/20 03:10:01;;;;;;;18.05;7.75;;;;;;;10.64;98.85;101281.16;5025539;28;20034;-93
2022/10/20 03:12:27;;;;;;;13.38;8.05;;;;;;;10.57;99.15;101270.56;5009231;28;20076;-91
2022/10/20 03:14:52;;;;;;;12.77;7.75;;;;;;;10.57;99.27;101277.50;5007984;28;20042;-90
2022/10/20 03:17:18;;;;;;;22.55;7.18;;;;;;;10.53;98.95;101274.41;4994533;28;20025;-90
2022/10/20 03:19:43;;;;;;;16.83;8.13;;;;;;;10.49;99.05;101273.03;5005066;28;20107;-90
2022/10/20 03:22:09;;;;;;;16.80;7.50;;;;;;;10.47;99.57;101270.63;5011769;28;20038;-90
2022/10/20 03:24:34;;;;;;;12.40;7.60;;;;;;;10.63;98.95;101269.19;5008687;28;20034;-90
2022/10/20 03:27:00;;;;;;;16.75;7.70;;;;;;;10.51;98.88;101260.78;5009412;28;20030;-90
2022/10/20 03:29:25;;;;;;;18.20;8.05;;;;;;;10.51;99.05;101247.81;4996748;28;20030;-90
2022/10/20 03:31:51;;;;;;;15.70;7.50;;;;;;;10.57;98.50;101244.63;5010447;28;20411;-90
2022/10/20 03:34:16;;;;;;;15.60;7.88;;;;;;;10.50;98.89;101239.19;5011526;28;20034;-91
2022/10/20 03:36:42;;;;;;;14.20;7.55;;;;;;;10.36;99.73;101234.50;5008935;28;20054;-91
2022/10/20 03:39:07;;;;;;;17.38;7.38;;;;;;;10.43;99.33;101243.31;5017660;28;20080;-90
2022/10/20 03:41:33;;;;;;;18.50;7.43;;;;;;;10.47;98.84;101239.50;5013525;28;20410;-90
2022/10/20 03:44:00;;;;;;;15.35;8.55;;;;;;;10.51;99.01;101237.44;4985324;28;20026;-89
2022/10/20 03:46:26;;;;;;;17.15;8.30;;;;;;;10.46;98.74;101242.25;5019776;28;20026;-89
2022/10/20 03:48:51;;;;;;;13.75;7.10;;;;;;;10.42;98.94;101227.94;5008163;28;20515;-88
2022/10/20 03:51:17;;;;;;;21.50;8.18;;;;;;;10.36;99.12;101224.16;4990222;28;20033;-90
2022/10/20 03:53:42;;;;;;;11.70;7.15;;;;;;;10.39;98.68;101218.66;4999682;28;20052;-90
2022/10/20 03:56:09;;;;;;;15.80;7.35;;;;;;;10.52;97.98;101210.53;5015332;28;20127;-89
2022/10/20 03:58:35;;;;;;;18.92;7.18;;;;;;;10.43;98.21;101209.63;5024493;28;20060;-90
2022/10/20 04:01:01;;;;;;;17.33;8.07;;;;;;;10.48;98.21;101211.78;5015041;28;20034;-90
2022/10/20 04:03:27;;;;;;;18.30;7.93;;;;;;;10.41;98.18;101210.75;5024654;28;20034;-90
2022/10/20 04:05:52;;;;;;;27.23;7.35;;;;;;;10.47;97.97;101217.94;5018849;28;20048;-90
2022/10/20 04:08:17;;;;;;;12.07;7.03;;;;;;;10.35;98.39;101212.13;5016605;28;20384;-90
2022/10/20 04:10:43;;;;;;;12.68;7.60;;;;;;;10.41;98.49;101215.91;5013477;28;20418;-90
2022/10/20 04:13:09;;;;;;;15.82;7.40;;;;;;;10.40;98.24;101216.91;4998722;28;20033;-89
2022/10/20 04:15:34;;;;;;;16.15;7.60;;;;;;;10.49;97.68;101210.81;5013602;28;20040;-90
2022/10/20 04:18:00;;;;;;;15.40;7.80;;;;;;;10.50;97.35;101208.09;5014685;28;20037;-90
2022/10/20 04:20:26;;;;;;;17.33;7.30;;;;;;;10.46;97.36;101208.53;5011508;28;20080;-90
2022/10/20 04:22:52;;;;;;;15.52;7.70;;;;;;;10.44;97.74;101206.09;5017553;28;20042;-90
2022/10/20 04:25:17;;;;;;;11.45;7.13;;;;;;;10.40;97.58;101191.78;5017286;28;20026;-89
2022/10/20 04:27:43;;;;;;;14.60;6.88;;;;;;;10.44;97.85;101179.34;5019392;28;20041;-89
2022/10/20 04:30:09;;;;;;;12.45;6.88;;;;;;;10.36;97.61;101176.66;4996815;28;20037;-91
2022/10/20 04:32:34;;;;;;;11.95;6.63;;;;;;;10.44;97.37;101172.38;5018978;28;20029;-90
2022/10/20 04:35:00;;;;;;;15.88;7.30;;;;;;;10.39;97.31;101168.59;5015405;28;20029;-89
2022/10/20 04:37:26;;;;;;;13.85;6.35;;;;;;;10.36;97.52;101161.09;5014639;28;20475;-90
2022/10/20 04:39:51;;;;;;;13.98;6.50;;;;;;;10.31;98.40;101166.72;5015014;28;20034;-91
2022/10/20 04:42:17;;;;;;;16.08;7.03;;;;;;;10.39;97.34;101166.00;5018893;28;20037;-88
2022/10/20 04:44:43;;;;;;;13.00;6.65;;;;;;;10.42;97.36;101158.75;5001944;28;20033;-90
2022/10/20 04:47:08;;;;;;;14.27;6.55;;;;;;;10.38;97.39;101148.81;5012092;28;20037;-90
2022/10/20 04:49:34;;;;;;;15.32;6.40;;;;;;;10.42;97.31;101119.06;5015069;28;20482;-89
2022/10/20 04:51:59;;;;;;;13.80;7.13;;;;;;;10.40;97.36;101139.94;5000237;28;20031;-90
2022/10/20 04:54:25;;;;;;;10.38;6.72;;;;;;;10.39;97.10;101145.25;5013609;28;20030;-89
2022/10/20 04:56:50;;;;;;;11.30;7.15;;;;;;;10.36;97.16;101119.63;5014979;28;20025;-89
2022/10/20 04:59:16;;;;;;;14.65;6.90;;;;;;;10.36;96.97;101130.00;5017479;28;20033;-89
2022/10/20 05:01:41;;;;;;;14.15;7.85;;;;;;;10.40;96.89;101137.34;5011637;28;20062;-91
2022/10/20 05:04:08;;;;;;;13.40;6.10;;;;;;;10.42;97.01;101126.84;5020601;28;20121;-91
2022/10/20 05:06:33;;;;;;;15.15;6.38;;;;;;;10.39;96.75;101127.91;5019080;28;20037;-90
2022/10/20 05:09:02;;;;;;;12.00;6.22;;;;;;;10.33;97.17;101118.94;4997342;28;20520;-90
2022/10/20 05:11:29;;;;;;;13.32;6.75;;;;;;;10.42;96.63;101117.28;5016416;28;20042;-91
2022/10/20 05:13:55;;;;;;;19.13;6.82;;;;;;;10.40;96.59;101119.19;4998270;28;20045;-89
2022/10/20 05:16:21;;;;;;;14.35;6.90;;;;;;;10.45;96.60;101108.38;4990541;28;20041;-90
2022/10/20 05:18:47;;;;;;;28.58;7.13;;;;;;;10.33;97.04;101103.41;5009331;28;20540;-90
2022/10/20 05:21:16;;;;;;;14.60;7.32;;;;;;;10.44;96.25;101102.38;5009480;28;20053;-90
2022/10/20 05:23:43;;;;;;;13.95;7.47;;;;;;;10.47;96.38;101101.25;5015921;28;20113;-90
2022/10/20 05:26:12;;;;;;;11.00;6.18;;;;;;;10.45;96.43;101096.25;5001722;28;20031;-90
2022/10/20 05:28:38;;;;;;;13.60;6.03;;;;;;;10.42;96.25;101087.94;5013066;28;20030;-90
2022/10/20 05:31:06;;;;;;;13.18;6.82;;;;;;;10.42;96.01;101087.94;5019861;28;20034;-91
2022/10/20 05:33:32;;;;;;;14.18;6.35;;;;;;;10.42;96.20;101085.34;5027010;28;20041;-90
2022/10/20 05:35:58;;;;;;;10.68;6.80;;;;;;;10.44;96.01;101086.03;5012085;28;20035;-90
2022/10/20 05:38:23;;;;;;;16.00;7.20;;;;;;;10.43;96.05;101080.00;5028871;28;20034;-89
2022/10/20 05:40:48;;;;;;;12.48;6.63;;;;;;;10.44;95.71;101083.44;5023856;28;20033;-90
2022/10/20 05:43:14;;;;;;;15.73;6.78;;;;;;;10.39;96.13;101075.28;5011647;28;20034;-90
2022/10/20 05:45:39;;;;;;;18.88;7.07;;;;;;;10.37;96.04;101085.78;5015459;28;20030;-91
2022/10/20 05:48:05;;;;;;;12.23;6.85;;;;;;;10.40;96.03;101077.72;5014185;28;20033;-88
2022/10/20 05:50:31;;;;;;;13.98;6.13;;;;;;;10.37;95.92;101069.41;5009144;28;20486;-89
2022/10/20 05:52:57;;;;;;;13.70;6.25;;;;;;;10.41;95.82;101076.75;5011687;28;20072;-89
2022/10/20 05:55:35;;;;;;;14.35;6.53;;;;;;;10.48;95.78;101076.97;5008595;28;20095;-90
2022/10/20 05:58:00;;;;;;;14.13;6.63;;;;;;;10.42;95.87;101065.41;5001635;28;20095;-90
2022/10/20 06:00:29;;;;;;;24.38;7.38;;;;;;;10.41;96.04;101066.38;4998183;28;20447;-89
2022/10/20 06:02:55;;;;;;;16.13;7.28;;;;;;;10.43;96.28;101071.41;5019676;28;20030;-89
2022/10/20 06:05:21;;;;;;;13.27;7.43;;;;;;;10.40;96.15;101069.94;4992942;28;20474;-92
2022/10/20 06:07:46;;;;;;;13.55;6.93;;;;;;;10.38;96.48;101060.66;5001373;28;20040;-91
2022/10/20 06:10:12;;;;;;;12.07;6.40;;;;;;;10.38;96.02;101058.91;5015775;28;20038;-90
2022/10/20 06:12:37;;;;;;;9.93;6.43;;;;;;;10.45;95.98;101053.94;5006947;28;20064;-89
2022/10/20 06:15:03;;;;;;;10.73;6.13;;;;;;;10.47;95.68;101052.00;5007185;28;20073;-91
2022/10/20 06:17:28;;;;;;;11.10;6.53;;;;;;;10.48;95.62;101070.00;5010287;28;20059;-91
2022/10/20 06:19:54;;;;;;;13.52;6.97;;;;;;;10.55;95.35;101079.78;5007784;28;20033;-89
2022/10/20 06:22:19;;;;;;;11.93;6.55;;;;;;;10.54;95.48;101080.75;5010978;28;20028;-88
2022/10/20 06:24:45;;;;;;;16.75;7.00;;;;;;;10.51;95.65;101077.50;4995585;28;20104;-90
2022/10/20 06:27:11;;;;;;;12.13;6.85;;;;;;;10.63;95.86;101075.47;5017830;28;20042;-91
2022/10/20 06:29:36;;;;;;;15.20;7.63;;;;;;;10.63;95.10;101080.66;5015152;28;20038;-90
2022/10/20 06:32:02;;;;;;;20.90;6.93;;;;;;;10.54;95.73;101084.16;5007419;28;20029;-90
2022/10/20 06:34:28;;;;;;;10.80;6.63;;;;;;;10.54;95.74;101076.38;5012994;28;20666;-91
2022/10/20 06:36:53;;;;;;;11.68;6.72;;;;;;;10.59;95.69;101074.16;5011782;28;20033;-89
2022/10/20 06:39:21;;;;;;;15.27;7.30;;;;;;;10.65;95.38;101080.53;5014859;28;20029;-90
2022/10/20 06:41:49;;;;;;;12.68;7.22;;;;;;;10.74;94.70;101081.38;4994779;28;20079;-90
2022/10/20 06:44:19;;;;;;;19.45;7.55;;;;;;;10.71;94.79;101072.13;4998954;28;20033;-90
2022/10/20 06:46:44;;;;;;;11.43;6.50;;;;;;;10.78;94.66;101073.19;5011536;28;20038;-90
2022/10/20 06:49:12;;;;;;;17.88;7.55;;;;;;;10.74;94.80;101066.66;5010059;28;20034;-89
2022/10/20 06:51:38;;;;;;;15.18;8.20;;;;;;;10.82;94.39;101086.66;5012773;28;20034;-90
2022/10/20 06:54:04;;;;;;;14.77;6.60;;;;;;;10.79;94.60;101099.91;5013241;28;21125;-90
2022/10/20 06:56:32;;;;;;;24.00;7.43;;;;;;;10.83;94.37;101106.44;5013767;28;20026;-91
2022/10/20 06:58:58;;;;;;;10.60;6.97;;;;;;;10.75;94.90;101114.16;4995663;28;20030;-90
2022/10/20 07:01:29;;;;;;;11.20;6.90;;;;;;;10.80;94.82;101097.19;5014768;28;20123;-89
2022/10/20 07:03:57;;;;;;;18.23;6.95;;;;;;;10.87;94.00;101082.66;5011823;28;20029;-91
2022/10/20 07:06:27;;;;;;;13.95;6.90;;;;;;;10.87;94.35;101095.63;4997340;28;20034;-91
2022/10/20 07:08:55;;;;;;;11.63;6.43;;;;;;;10.94;93.79;101100.19;5006188;28;20038;-91
2022/10/20 07:11:23;;;;;;;16.73;7.45;;;;;;;10.91;94.05;101109.91;5011506;28;20045;-91
2022/10/20 07:13:49;;;;;;;13.05;7.20;;;;;;;11.01;93.29;101116.81;4992938;28;20451;-91
2022/10/20 07:16:21;;;;;;;17.35;7.75;;;;;;;10.94;93.40;101116.56;5009743;28;20083;-90
2022/10/20 07:18:52;;;;;;;14.57;6.72;;;;;;;11.04;93.07;101108.72;4992625;28;20438;-90
2022/10/20 07:21:45;;;;;;;13.88;6.60;;;;;;;10.96;93.89;101108.66;5007745;28;20025;-91
2022/10/20 07:24:11;;;;;;;13.48;7.35;;;;;;;10.96;93.77;101112.03;5011666;28;20409;-91
2022/10/20 07:26:43;;;;;;;13.82;6.68;;;;;;;11.08;93.47;101094.47;5013526;28;20029;-91
2022/10/20 07:29:09;;;;;;;13.55;7.22;;;;;;;11.06;93.40;101099.81;4992708;28;20048;-90
2022/10/20 07:31:38;;;;;;;17.85;8.73;;;;;;;11.13;93.01;101088.81;5008878;28;20030;-91
2022/10/20 07:34:05;;;;;;;15.43;7.53;;;;;;;11.11;93.05;101094.16;5007382;28;20090;-91
2022/10/20 07:36:32;;;;;;;12.32;6.97;;;;;;;11.11;93.31;101099.34;5009172;28;20505;-89
2022/10/20 07:39:00;;;;;;;15.45;8.13;;;;;;;11.09;93.58;101111.66;5007733;28;20483;-91
2022/10/20 07:41:26;;;;;;;11.75;6.93;;;;;;;11.15;93.23;101113.66;5009343;28;20038;-90
2022/10/20 07:43:53;;;;;;;13.70;7.00;;;;;;;11.19;93.02;101086.44;4998261;28;20499;-90
2022/10/20 07:46:19;;;;;;;14.00;7.15;;;;;;;11.18;93.46;101065.81;5024499;28;20137;-90
2022/10/20 07:48:47;;;;;;;12.63;7.10;;;;;;;11.20;93.25;101072.47;5008633;28;20084;-90
2022/10/20 07:51:14;;;;;;;15.18;8.35;;;;;;;11.29;92.88;101097.50;5008196;28;20045;-91
2022/10/20 07:53:39;;;;;;;17.98;7.68;;;;;;;11.26;94.03;101097.00;5010634;28;20507;-90
2022/10/20 07:56:05;;;;;;;14.30;7.32;;;;;;;11.38;92.88;101087.19;4992204;28;20022;-89
2022/10/20 07:58:31;;;;;;;13.15;7.63;;;;;;;11.39;92.95;101107.78;5009880;28;20033;-90
2022/10/20 08:00:56;;;;;;;13.43;7.40;;;;;;;11.45;93.15;101106.38;5019860;28;20034;-90
2022/10/20 08:03:22;;;;;;;14.50;7.30;;;;;;;11.61;91.89;101108.25;5012172;28;20030;-90
2022/10/20 08:05:48;;;;;;;24.15;8.55;;;;;;;11.62;91.69;101102.06;5013369;28;20036;-91
2022/10/20 08:08:16;;;;;;;15.50;7.20;;;;;;;11.79;91.69;101100.34;5009775;28;20068;-91
2022/10/20 08:11:01;;;;;;;21.88;7.90;;;;;;;11.91;90.58;101104.34;5001686;28;20041;-89
2022/10/20 08:13:27;;;;;;;13.75;7.30;;;;;;;12.00;89.68;101094.78;4994690;28;20034;-91
2022/10/20 08:15:53;;;;;;;16.10;7.90;;;;;;;12.00;89.80;101097.41;5006264;28;20065;-90
2022/10/20 08:18:20;;;;;;;19.13;7.70;;;;;;;12.10;89.66;101103.25;5008543;28;20034;-89
2022/10/20 08:20:45;;;;;;;17.10;8.15;;;;;;;12.00;90.03;101107.78;5007368;28;20149;-89
2022/10/20 08:23:12;;;;;;;16.92;7.50;;;;;;;12.08;89.95;101090.41;5008410;28;20042;-91
2022/10/20 08:25:37;;;;;;;20.98;7.50;;;;;;;12.15;89.58;101082.81;5000759;28;20186;-89
2022/10/20 08:28:03;;;;;;;15.85;7.55;;;;;;;12.13;89.79;101081.31;5008018;28;20034;-91
2022/10/20 08:30:29;;;;;;;17.25;7.70;;;;;;;12.05;90.18;101082.13;5015837;28;20029;-91
2022/10/20 08:32:55;;;;;;;11.90;7.32;;;;;;;12.09;91.04;101088.63;5029368;28;20033;-89
2022/10/20 08:35:21;;;;;;;16.38;7.40;;;;;;;12.14;90.37;101069.97;5016328;28;20034;-90
2022/10/20 08:37:47;;;;;;;12.88;7.57;;;;;;;12.21;90.78;101063.97;5007564;28;20536;-91
2022/10/20 08:40:19;;;;;;;17.10;7.28;;;;;;;12.25;90.12;101060.06;4994400;28;20038;-90
2022/10/20 08:42:46;;;;;;;19.98;7.88;;;;;;;12.27;89.95;101047.72;5007125;28;20375;-90
2022/10/20 08:45:17;;;;;;;13.73;7.88;;;;;;;12.35;89.81;101062.50;5009531;28;20034;-91
2022/10/20 08:47:45;;;;;;;17.58;8.32;;;;;;;12.32;90.39;101068.06;4994156;28;20081;-91
2022/10/20 08:50:20;;;;;;;13.30;7.97;;;;;;;12.28;90.40;101051.13;5008669;28;20053;-90
2022/10/20 08:52:49;;;;;;;16.63;8.07;;;;;;;12.33;90.26;101048.06;4997027;28;20024;-90
2022/10/20 08:55:22;;;;;;;17.88;7.75;;;;;;;12.22;90.89;101062.16;5021203;28;20034;-90
2022/10/20 08:57:48;;;;;;;20.97;7.90;;;;;;;12.31;90.64;101065.59;5010047;28;20022;-90
2022/10/20 09:00:18;;;;;;;15.25;7.75;;;;;;;12.25;91.14;101087.84;5011337;28;20482;-91
2022/10/20 09:02:45;;;;;;;17.48;7.82;;;;;;;12.32;90.62;101093.22;5012519;28;20041;-92
2022/10/20 09:05:13;;;;;;;14.68;7.97;;;;;;;12.39;90.03;101076.00;5015325;28;20033;-90
2022/10/20 09:07:39;;;;;;;18.33;8.38;;;;;;;12.48;90.08;101069.84;5008378;28;20111;-89
2022/10/20 09:10:35;;;;;;;15.73;8.30;;;;;;;12.53;89.95;101069.38;5007025;28;20038;-91
2022/10/20 09:13:04;;;;;;;14.38;8.25;;;;;;;12.54;89.93;101050.97;5009352;28;20045;-90
2022/10/20 09:15:29;;;;;;;14.35;8.38;;;;;;;12.56;89.68;101051.63;5009165;28;20033;-91
2022/10/20 09:17:59;;;;;;;17.58;8.18;;;;;;;12.76;89.65;101044.31;5013288;28;20022;-91
2022/10/20 09:20:32;;;;;;;26.92;10.00;;;;;;;12.94;88.99;101051.09;5010537;28;20037;-89
2022/10/20 09:22:58;;;;;;;15.85;7.07;;;;;;;13.10;88.20;101037.25;4998908;28;20120;-89
2022/10/20 09:25:26;;;;;;;16.60;8.18;;;;;;;13.10;87.11;101035.47;5010153;28;20084;-91
2022/10/20 09:27:56;;;;;;;11.52;7.22;;;;;;;13.07;87.65;101014.97;5013049;28;20030;-91
2022/10/20 09:30:33;;;;;;;16.00;7.97;;;;;;;13.03;86.74;101024.94;4997370;28;20562;-89
2022/10/20 09:32:59;;;;;;;17.50;8.52;;;;;;;13.07;86.94;101020.16;5012784;28;20022;-90
2022/10/20 09:35:24;;;;;;;17.15;7.68;;;;;;;12.99;87.87;101026.22;5012273;28;20033;-91
2022/10/20 09:38:02;;;;;;;14.35;7.25;;;;;;;13.07;87.82;101024.56;5027191;28;20132;-91
2022/10/20 09:40:27;;;;;;;16.15;7.90;;;;;;;13.06;87.44;101018.56;5008379;28;20490;-91
2022/10/20 09:43:01;;;;;;;17.27;7.78;;;;;;;12.96;87.60;101018.75;5012006;28;20045;-91
2022/10/20 09:45:29;;;;;;;14.00;7.68;;;;;;;12.97;88.71;101017.75;5015765;28;20072;-91
2022/10/20 09:48:16;;;;;;;22.92;7.63;;;;;;;13.03;88.61;101024.94;5028170;28;20119;-91
2022/10/20 09:50:47;;;;;;;12.30;6.88;;;;;;;13.01;88.84;101028.66;5004861;28;20087;-90
2022/10/20 09:53:28;;;;;;;15.40;7.72;;;;;;;12.91;89.96;101034.03;4989909;28;20046;-91
2022/10/20 09:55:54;;;;;;;17.98;7.28;;;;;;;12.96;89.63;101060.41;5012536;28;20034;-91
2022/10/20 09:58:26;;;;;;;13.65;7.50;;;;;;;12.97;88.52;101075.03;5001498;28;20034;-91
2022/10/20 10:01:05;;;;;;;13.82;7.57;;;;;;;12.83;88.59;101089.53;5000566;28;20386;-91
2022/10/20 10:03:46;;;;;;;16.08;7.25;;;;;;;12.88;88.70;101081.22;5005674;28;20037;-91
2022/10/20 10:06:28;;;;;;;14.77;7.35;;;;;;;12.84;89.33;101082.53;5023930;28;20042;-90
2022/10/20 10:08:56;;;;;;;11.02;7.22;;;;;;;12.75;89.39;101071.31;5020383;28;20038;-89
2022/10/20 10:11:27;;;;;;;16.35;7.80;;;;;;;12.72;89.65;101055.22;5006200;28;20036;-92
2022/10/20 10:13:53;;;;;;;14.60;8.13;;;;;;;12.90;89.24;101044.63;4988748;28;20034;-91
2022/10/20 10:16:21;;;;;;;27.27;9.88;;;;;;;12.95;89.14;101048.34;5017369;28;20088;-92
2022/10/20 10:18:56;;;;;;;20.30;7.72;;;;;;;12.99;89.21;101070.47;5006862;28;20064;-88
2022/10/20 10:21:22;;;;;;;16.83;7.78;;;;;;;13.13;88.20;101068.16;5028605;28;20029;-89
2022/10/20 10:24:04;;;;;;;18.00;8.40;;;;;;;13.17;88.37;101070.28;5012785;28;20587;-90
2022/10/20 10:26:50;;;;;;;14.25;7.68;;;;;;;13.10;88.25;101071.91;5029864;28;20080;-90
2022/10/20 10:29:25;;;;;;;16.83;9.40;;;;;;;12.98;88.22;101055.84;5005772;28;20095;-90
2022/10/20 10:32:12;;;;;;;11.90;7.60;;;;;;;12.95;88.88;101057.97;5015526;28;20495;-89
2022/10/20 10:35:00;;;;;;;11.50;7.55;;;;;;;13.05;89.44;101064.63;5013245;28;20046;-92
2022/10/20 10:37:47;;;;;;;13.52;7.95;;;;;;;13.09;89.96;101066.88;4994118;28;20038;-91
2022/10/20 10:40:20;;;;;;;18.70;8.63;;;;;;;13.07;90.54;101068.81;5013728;28;20477;-92
2022/10/20 10:43:00;;;;;;;16.55;8.02;;;;;;;12.96;91.36;101068.22;4991963;28;20048;-91
2022/10/20 10:45:44;;;;;;;15.13;8.25;;;;;;;12.95;92.40;101050.94;4999346;28;20042;-90
2022/10/20 10:48:17;;;;;;;16.95;8.43;;;;;;;12.90;93.73;101050.63;5014389;28;20048;-91
2022/10/20 10:50:47;;;;;;;21.90;8.73;;;;;;;12.87;93.99;101055.38;5008767;28;20038;-91
2022/10/20 10:53:50;;;;;;;16.52;8.73;;;;;;;12.78;95.97;101049.34;5014277;28;20045;-93
2022/10/20 10:56:31;;;;;;;15.07;8.27;;;;;;;12.73;96.78;101034.22;5009810;28;20023;-92
2022/10/20 10:59:04;;;;;;;15.30;9.25;;;;;;;12.73;96.94;101028.22;5008362;28;20041;-93
2022/10/20 11:02:07;;;;;;;16.58;8.50;;;;;;;12.66;97.50;101028.88;5012928;28;20026;-91
2022/10/20 11:04:55;;;;;;;15.23;9.13;;;;;;;12.62;97.83;101035.38;5010394;28;20038;-91
2022/10/20 11:07:50;;;;;;;20.08;10.27;;;;;;;12.57;99.53;101026.44;5029846;28;20038;-91
2022/10/20 11:10:28;;;;;;;20.20;10.20;;;;;;;12.51;100.00;101027.91;5026816;28;20033;-92
2022/10/20 11:13:11;;;;;;;18.15;9.55;;;;;;;12.56;100.00;101011.81;5006233;28;20594;-94
2022/10/20 11:15:43;;;;;;;20.55;10.23;;;;;;;12.32;100.00;101023.00;5012993;23;20054;-78
2022/10/20 11:18:36;;;;;;;20.52;10.20;;;;;;;12.40;100.00;101030.84;4985880;28;20084;-79
2022/10/20 11:21:43;;;;;;;25.15;11.60;;;;;;;12.26;100.00;101040.91;4981538;28;20035;-78
2022/10/20 11:24:49;;;;;;;21.88;11.68;;;;;;;12.19;100.00;101045.13;4957316;28;20408;-77
2022/10/20 11:27:14;;;;;;;20.48;11.48;;;;;;;12.23;100.00;101046.41;4983988;28;20306;-77